createdAt,value
2023-04-15T00:00:18.985Z,4.57
2023-04-15T00:03:25.386Z,5.55
2023-04-15T00:06:31.338Z,4.70
2023-04-15T00:09:35.851Z,5.07
2023-04-15T00:12:41.269Z,4.40
2023-04-15T00:15:45.749Z,5.88
2023-04-15T00:18:50.558Z,5.28
2023-04-15T00:21:55.681Z,4.95
2023-04-15T00:25:00.202Z,4.22
2023-04-15T00:28:04.997Z,6.85
2023-04-15T00:31:09.770Z,4.70
2023-04-15T00:34:14.941Z,6.10
2023-04-15T00:37:21.211Z,6.55
2023-04-15T00:40:26.193Z,7.97
2023-04-15T00:43:31.210Z,6.45
2023-04-15T00:46:38.266Z,5.80
2023-04-15T00:49:42.823Z,7.00
2023-04-15T00:52:47.502Z,8.80
2023-04-15T00:55:54.046Z,7.53
2023-04-15T00:58:59.582Z,6.68
2023-04-15T01:02:04.903Z,6.28
2023-04-15T01:05:09.717Z,6.97
2023-04-15T01:08:14.796Z,7.10
2023-04-15T01:11:20.066Z,5.32
2023-04-15T01:14:26.138Z,6.65
2023-04-15T01:17:30.719Z,6.82
2023-04-15T01:20:36.315Z,7.22
2023-04-15T01:23:41.030Z,5.45
2023-04-15T01:26:46.632Z,5.88
2023-04-15T01:29:51.523Z,5.07
2023-04-15T01:32:56.211Z,8.20
2023-04-15T01:36:01.625Z,5.53
2023-04-15T01:39:06.667Z,5.13
2023-04-15T01:42:11.583Z,5.55
2023-04-15T01:45:16.648Z,4.03
2023-04-15T01:48:21.670Z,2.10
2023-04-15T01:51:27.284Z,3.00
2023-04-15T01:54:31.838Z,4.22
2023-04-15T01:57:37.024Z,3.00
2023-04-15T02:00:41.885Z,3.97
2023-04-15T02:03:47.889Z,4.03
2023-04-15T02:06:53.381Z,3.80
2023-04-15T02:09:59.638Z,4.05
2023-04-15T02:13:04.795Z,5.32
2023-04-15T02:16:19.602Z,4.78
2023-04-15T02:19:25.166Z,5.22
2023-04-15T02:22:30.343Z,4.68
2023-04-15T02:25:35.013Z,2.50
2023-04-15T02:28:42.326Z,4.57
2023-04-15T02:31:48.123Z,3.92
2023-04-15T02:34:53.145Z,4.15
2023-04-15T02:37:57.786Z,4.05
2023-04-15T02:41:02.963Z,3.85
2023-04-15T02:44:10.915Z,2.95
2023-04-15T02:47:16.428Z,3.05
2023-04-15T02:50:21.031Z,3.80
2023-04-15T02:53:26.861Z,2.78
2023-04-15T02:56:31.645Z,3.60
2023-04-15T02:59:36.229Z,2.03
2023-04-15T03:02:42.299Z,2.33
2023-04-15T03:05:47.120Z,3.30
2023-04-15T03:08:51.874Z,2.47
2023-04-15T03:11:57.147Z,1.75
2023-04-15T03:15:02.583Z,2.20
2023-04-15T03:18:13.807Z,2.28
2023-04-15T03:21:20.011Z,3.45
2023-04-15T03:24:27.158Z,3.80
2023-04-15T03:27:34.049Z,4.05
2023-04-15T03:30:41.129Z,5.63
2023-04-15T03:33:47.049Z,5.00
2023-04-15T03:36:52.173Z,7.28
2023-04-15T03:39:56.737Z,5.70
2023-04-15T03:43:01.749Z,6.70
2023-04-15T03:46:06.933Z,5.65
2023-04-15T03:49:11.502Z,5.28
2023-04-15T03:52:16.313Z,4.50
2023-04-15T03:55:21.030Z,4.15
2023-04-15T03:58:25.637Z,3.17
2023-04-15T04:01:30.281Z,1.27
2023-04-15T04:04:34.912Z,3.92
2023-04-15T04:07:39.494Z,2.97
2023-04-15T04:10:43.999Z,3.60
2023-04-15T04:13:48.871Z,2.35
2023-04-15T04:16:53.674Z,2.80
2023-04-15T04:19:58.328Z,3.33
2023-04-15T04:23:02.829Z,3.78
2023-04-15T04:26:07.451Z,2.60
2023-04-15T04:29:12.379Z,2.95
2023-04-15T04:32:17.188Z,2.28
2023-04-15T04:35:22.013Z,2.95
2023-04-15T04:38:26.560Z,1.88
2023-04-15T04:41:32.284Z,1.85
2023-04-15T04:44:37.220Z,3.75
2023-04-15T04:47:41.780Z,2.55
2023-04-15T04:50:47.359Z,1.13
2023-04-15T04:53:51.932Z,1.15
2023-04-15T04:56:57.831Z,0.95
2023-04-15T05:00:04.904Z,2.33
2023-04-15T05:03:09.597Z,1.23
2023-04-15T05:06:14.426Z,1.48
2023-04-15T05:09:19.200Z,1.15
2023-04-15T05:12:23.730Z,1.30
2023-04-15T05:15:28.371Z,1.10
2023-04-15T05:18:33.474Z,1.38
2023-04-15T05:21:39.523Z,1.35
2023-04-15T05:24:44.216Z,1.48
2023-04-15T05:27:49.071Z,1.25
2023-04-15T05:30:53.742Z,1.33
2023-04-15T05:33:58.314Z,1.95
2023-04-15T05:37:03.384Z,0.82
2023-04-15T05:40:10.479Z,2.92
2023-04-15T05:43:15.215Z,1.48
2023-04-15T05:46:19.889Z,1.00
2023-04-15T05:49:24.409Z,2.67
2023-04-15T05:52:29.054Z,1.08
2023-04-15T05:55:33.520Z,0.98
2023-04-15T05:58:38.025Z,0.55
2023-04-15T06:01:42.885Z,0.43
2023-04-15T06:04:47.942Z,0.45
2023-04-15T06:07:52.765Z,1.13
2023-04-15T06:10:58.503Z,0.60
2023-04-15T06:14:03.158Z,1.92
2023-04-15T06:17:08.418Z,0.73
2023-04-15T06:20:13.025Z,0.50
2023-04-15T06:23:17.651Z,1.52
2023-04-15T06:26:22.480Z,1.17
2023-04-15T06:29:27.104Z,0.50
2023-04-15T06:32:32.648Z,0.40
2023-04-15T06:35:37.655Z,0.50
2023-04-15T06:38:42.459Z,0.40
2023-04-15T06:41:47.310Z,1.42
2023-04-15T06:44:51.881Z,0.50
2023-04-15T06:47:56.575Z,0.65
2023-04-15T06:51:01.569Z,0.70
2023-04-15T06:54:06.520Z,0.60
2023-04-15T06:57:11.335Z,0.50
2023-04-15T07:00:16.675Z,0.80
2023-04-15T07:03:21.223Z,0.65
2023-04-15T07:06:25.983Z,0.95
2023-04-15T07:09:30.576Z,1.92
2023-04-15T07:12:35.896Z,1.45
2023-04-15T07:15:40.469Z,0.60
2023-04-15T07:18:45.087Z,0.50
2023-04-15T07:21:49.562Z,0.50
2023-04-15T07:24:54.135Z,0.60
2023-04-15T07:27:58.849Z,2.83
2023-04-15T07:31:04.154Z,0.50
2023-04-15T07:34:09.008Z,0.45
2023-04-15T07:37:13.893Z,0.50
2023-04-15T07:40:18.605Z,0.73
2023-04-15T07:43:23.494Z,0.38
2023-04-15T07:46:28.635Z,0.60
2023-04-15T07:49:33.206Z,1.20
2023-04-15T07:52:40.677Z,0.50
2023-04-15T07:55:45.342Z,0.70
2023-04-15T07:58:49.918Z,0.50
2023-04-15T08:01:55.278Z,0.77
2023-04-15T08:05:01.725Z,0.73
2023-04-15T08:08:06.965Z,0.55
2023-04-15T08:11:12.772Z,0.55
2023-04-15T08:14:17.399Z,0.95
2023-04-15T08:17:22.191Z,0.50
2023-04-15T08:20:27.746Z,0.73
2023-04-15T08:23:33.384Z,2.00
2023-04-15T08:26:37.960Z,0.60
2023-04-15T08:29:42.544Z,0.55
2023-04-15T08:32:47.694Z,0.60
2023-04-15T08:35:52.982Z,0.70
2023-04-15T08:38:57.726Z,0.70
2023-04-15T08:42:05.590Z,0.63
2023-04-15T08:45:13.596Z,0.57
2023-04-15T08:48:18.474Z,0.60
2023-04-15T08:51:24.980Z,0.40
2023-04-15T08:54:30.411Z,0.40
2023-04-15T08:57:36.766Z,0.50
2023-04-15T09:00:42.242Z,0.50
2023-04-15T09:03:49.349Z,2.05
2023-04-15T09:06:54.158Z,0.90
2023-04-15T09:09:58.756Z,0.60
2023-04-15T09:13:04.422Z,0.60
2023-04-15T09:16:09.581Z,0.60
2023-04-15T09:19:24.449Z,1.80
2023-04-15T09:22:32.906Z,2.78
2023-04-15T09:25:37.955Z,1.38
2023-04-15T09:28:43.488Z,2.03
2023-04-15T09:31:47.998Z,0.95
2023-04-15T09:34:52.772Z,0.60
2023-04-15T09:38:06.237Z,0.47
2023-04-15T09:41:19.575Z,0.90
2023-04-15T09:44:26.050Z,1.02
2023-04-15T09:47:32.154Z,0.70
2023-04-15T09:50:41.325Z,2.97
2023-04-15T09:53:45.887Z,1.70
2023-04-15T09:56:50.413Z,2.13
2023-04-15T09:59:55.018Z,2.58
2023-04-15T10:02:59.984Z,1.98
2023-04-15T10:06:05.662Z,1.50
2023-04-15T10:09:10.581Z,1.25
2023-04-15T10:12:17.672Z,1.55
2023-04-15T10:15:23.459Z,1.00
2023-04-15T10:18:29.686Z,0.75
2023-04-15T10:21:35.031Z,0.60
2023-04-15T10:24:40.760Z,0.90
2023-04-15T10:27:45.712Z,0.50
2023-04-15T10:30:50.315Z,0.60
2023-04-15T10:33:55.485Z,2.42
2023-04-15T10:37:06.186Z,1.30
2023-04-15T10:40:31.382Z,0.85
2023-04-15T10:43:37.321Z,0.75
2023-04-15T10:46:44.742Z,0.47
2023-04-15T10:49:58.038Z,0.40
2023-04-15T10:53:04.890Z,0.65
2023-04-15T10:56:10.744Z,0.80
2023-04-15T10:59:16.393Z,1.63
2023-04-15T11:02:21.272Z,0.70
2023-04-15T11:05:41.497Z,0.50
2023-04-15T11:09:32.342Z,0.80
2023-04-15T11:12:37.644Z,4.22
2023-04-15T11:15:46.510Z,0.57
2023-04-15T11:18:55.487Z,0.60
2023-04-15T11:22:10.492Z,0.65
2023-04-15T11:25:32.211Z,0.90
2023-04-15T11:28:41.011Z,0.60
2023-04-15T11:31:49.594Z,0.63
2023-04-15T11:34:54.627Z,0.75
2023-04-15T11:38:03.802Z,1.20
2023-04-15T11:41:08.687Z,0.75
2023-04-15T11:44:17.889Z,0.60
2023-04-15T11:47:23.833Z,0.70
2023-04-15T11:50:28.339Z,0.90
2023-04-15T11:53:52.181Z,1.25
2023-04-15T11:56:57.363Z,0.80
2023-04-15T12:00:02.030Z,1.15
2023-04-15T12:03:30.941Z,1.52
2023-04-15T12:06:36.925Z,1.33
2023-04-15T12:09:42.477Z,4.30
2023-04-15T12:12:49.851Z,1.42
2023-04-15T12:15:55.818Z,1.83
2023-04-15T12:19:01.113Z,1.52
2023-04-15T12:22:10.993Z,1.73
2023-04-15T12:25:15.988Z,2.92
2023-04-15T12:28:20.619Z,1.20
2023-04-15T12:31:25.286Z,0.90
2023-04-15T12:34:35.731Z,1.20
2023-04-15T12:37:40.569Z,0.85
2023-04-15T12:40:47.113Z,1.63
2023-04-15T12:43:52.149Z,1.45
2023-04-15T12:46:57.501Z,1.27
2023-04-15T12:50:02.333Z,0.85
2023-04-15T12:53:07.321Z,0.65
2023-04-15T12:56:11.916Z,0.80
2023-04-15T12:59:21.122Z,0.80
2023-04-15T13:02:28.791Z,0.95
2023-04-15T13:05:33.478Z,1.15
2023-04-15T13:08:42.546Z,0.82
2023-04-15T13:11:49.964Z,1.70
2023-04-15T13:14:54.743Z,0.63
2023-04-15T13:17:59.351Z,0.80
2023-04-15T13:21:05.319Z,0.82
2023-04-15T13:24:10.258Z,0.90
2023-04-15T13:27:14.818Z,0.93
2023-04-15T13:30:19.337Z,1.10
2023-04-15T13:33:23.955Z,0.73
2023-04-15T13:36:28.500Z,1.00
2023-04-15T13:39:33.182Z,1.05
2023-04-15T13:42:37.789Z,1.23
2023-04-15T13:45:42.518Z,1.05
2023-04-15T13:48:47.050Z,1.75
2023-04-15T13:51:52.173Z,1.00
2023-04-15T13:55:08.161Z,2.25
2023-04-15T13:58:21.437Z,1.30
2023-04-15T14:01:26.533Z,1.10
2023-04-15T14:04:32.096Z,1.50
2023-04-15T14:07:37.326Z,0.95
2023-04-15T14:10:44.424Z,0.98
2023-04-15T14:13:49.171Z,1.10
2023-04-15T14:16:56.380Z,0.85
2023-04-15T14:20:01.073Z,1.33
2023-04-15T14:23:05.719Z,1.17
2023-04-15T14:26:10.474Z,1.80
2023-04-15T14:29:15.030Z,1.30
2023-04-15T14:32:19.878Z,0.90
2023-04-15T14:35:26.712Z,3.33
2023-04-15T14:38:31.465Z,1.30
2023-04-15T14:41:36.178Z,1.23
2023-04-15T14:44:41.001Z,1.00
2023-04-15T14:47:45.766Z,1.40
2023-04-15T14:50:50.366Z,1.63
2023-04-15T14:53:54.894Z,1.73
2023-04-15T14:56:59.552Z,2.10
2023-04-15T15:00:05.477Z,4.40
2023-04-15T15:03:15.060Z,1.60
2023-04-15T15:06:21.615Z,1.88
2023-04-15T15:09:26.551Z,2.25
2023-04-15T15:12:31.099Z,2.97
2023-04-15T15:15:37.124Z,1.85
2023-04-15T15:18:41.733Z,1.80
2023-04-15T15:21:46.980Z,1.83
2023-04-15T15:24:51.547Z,2.08
2023-04-15T15:27:57.605Z,2.63
2023-04-15T15:31:02.146Z,1.80
2023-04-15T15:34:06.722Z,1.85
2023-04-15T15:37:11.645Z,2.20
2023-04-15T15:40:16.404Z,1.70
2023-04-15T15:43:21.193Z,1.70
2023-04-15T15:46:28.042Z,2.60
2023-04-15T15:49:32.882Z,2.03
2023-04-15T15:52:37.638Z,2.65
2023-04-15T15:55:42.157Z,2.58
2023-04-15T15:58:46.686Z,2.33
2023-04-15T16:01:51.925Z,2.33
2023-04-15T16:04:56.634Z,2.00
2023-04-15T16:08:01.742Z,2.28
2023-04-15T16:11:06.333Z,2.63
2023-04-15T16:14:11.183Z,2.85
2023-04-15T16:17:15.794Z,4.78
2023-04-15T16:20:20.493Z,2.45
2023-04-15T16:23:25.062Z,2.08
2023-04-15T16:26:29.750Z,1.95
2023-04-15T16:29:34.923Z,4.95
2023-04-15T16:32:39.527Z,2.35
2023-04-15T16:35:44.112Z,2.78
2023-04-15T16:38:48.769Z,2.83
2023-04-15T16:41:53.672Z,3.22
2023-04-15T16:44:58.318Z,4.72
2023-04-15T16:48:02.921Z,3.30
2023-04-15T16:51:07.560Z,3.60
2023-04-15T16:54:12.099Z,3.67
2023-04-15T16:57:16.820Z,2.63
2023-04-15T17:00:22.984Z,3.75
2023-04-15T17:03:27.750Z,4.15
2023-04-15T17:06:32.430Z,5.63
2023-04-15T17:09:39.197Z,2.65
2023-04-15T17:12:43.869Z,4.40
2023-04-15T17:15:48.559Z,5.40
2023-04-15T17:18:53.158Z,2.47
2023-04-15T17:21:58.200Z,3.03
2023-04-15T17:25:03.634Z,3.35
2023-04-15T17:28:08.251Z,3.90
2023-04-15T17:31:12.926Z,3.15
2023-04-15T17:34:17.571Z,2.50
2023-04-15T17:37:22.218Z,3.47
2023-04-15T17:40:27.103Z,3.33
2023-04-15T17:43:31.916Z,5.72
2023-04-15T17:46:36.648Z,3.85
2023-04-15T17:49:41.218Z,5.05
2023-04-15T17:52:48.274Z,3.72
2023-04-15T17:55:53.743Z,4.20
2023-04-15T17:58:58.748Z,7.45
2023-04-15T18:02:03.656Z,5.55
2023-04-15T18:05:08.647Z,6.85
2023-04-15T18:08:13.550Z,4.35
2023-04-15T18:11:18.200Z,5.53
2023-04-15T18:14:33.693Z,5.00
2023-04-15T18:17:39.084Z,4.38
2023-04-15T18:20:43.648Z,4.10
2023-04-15T18:23:48.153Z,6.00
2023-04-15T18:26:52.936Z,8.05
2023-04-15T18:29:57.712Z,7.70
2023-04-15T18:33:02.478Z,5.53
2023-04-15T18:36:07.142Z,5.60
2023-04-15T18:39:11.817Z,5.60
2023-04-15T18:42:16.365Z,7.65
2023-04-15T18:45:20.950Z,8.90
2023-04-15T18:48:28.595Z,4.75
2023-04-15T18:51:33.305Z,6.25
2023-04-15T18:54:38.189Z,6.68
2023-04-15T18:57:44.947Z,6.63
2023-04-15T19:00:49.786Z,9.35
2023-04-15T19:03:54.411Z,8.43
2023-04-15T19:06:59.193Z,7.63
2023-04-15T19:10:05.866Z,6.75
2023-04-15T19:13:10.512Z,6.60
2023-04-15T19:16:15.206Z,5.82
2023-04-15T19:19:20.059Z,7.35
2023-04-15T19:22:24.766Z,9.90
2023-04-15T19:25:30.725Z,8.75
2023-04-15T19:28:35.659Z,7.53
2023-04-15T19:31:40.199Z,7.60
2023-04-15T19:34:44.936Z,8.55
2023-04-15T19:37:49.524Z,6.93
2023-04-15T19:40:54.236Z,10.05
2023-04-15T19:43:58.821Z,7.88
2023-04-15T19:47:03.354Z,7.93
2023-04-15T19:50:10.151Z,8.38
2023-04-15T19:53:14.702Z,8.25
2023-04-15T19:56:20.239Z,7.43
2023-04-15T19:59:24.852Z,8.70
2023-04-15T20:02:30.273Z,10.15
2023-04-15T20:05:35.547Z,9.73
2023-04-15T20:08:40.117Z,11.82
2023-04-15T20:12:47.931Z,9.63
2023-04-15T20:15:09.735Z,9.57
2023-04-15T20:18:14.744Z,9.98
2023-04-15T20:21:19.540Z,11.45
2023-04-15T20:24:24.325Z,9.70
2023-04-15T20:27:29.434Z,9.23
2023-04-15T20:30:34.323Z,8.65
2023-04-15T20:33:38.894Z,9.80
2023-04-15T20:36:43.570Z,10.98
2023-04-15T20:39:48.562Z,9.82
2023-04-15T20:42:53.145Z,10.25
2023-04-15T20:46:02.150Z,9.48
2023-04-15T20:49:11.474Z,9.73
2023-04-15T20:52:16.248Z,10.80
2023-04-15T20:55:20.932Z,10.32
2023-04-15T20:58:26.581Z,11.75
2023-04-15T21:01:31.280Z,12.15
2023-04-15T21:04:37.805Z,11.98
2023-04-15T21:07:42.361Z,13.27
2023-04-15T21:10:46.942Z,8.82
2023-04-15T21:13:51.594Z,10.85
2023-04-15T21:16:59.598Z,10.05
2023-04-15T21:20:04.753Z,11.80
2023-04-15T21:23:11.297Z,12.32
2023-04-15T21:26:18.464Z,11.68
2023-04-15T21:29:23.985Z,13.10
2023-04-15T21:32:30.499Z,13.02
2023-04-15T21:35:35.288Z,12.70
2023-04-15T21:38:39.760Z,10.90
2023-04-15T21:41:44.398Z,12.32
2023-04-15T21:44:48.956Z,13.75
2023-04-15T21:48:05.846Z,10.90
2023-04-15T21:51:13.022Z,12.18
2023-04-15T21:54:17.738Z,10.57
2023-04-15T21:57:22.362Z,10.20
2023-04-15T22:00:26.952Z,16.60
2023-04-15T22:03:34.420Z,12.93
2023-04-15T22:06:39.405Z,13.27
2023-04-15T22:09:43.988Z,12.73
2023-04-15T22:12:48.473Z,10.77
2023-04-15T22:15:53.064Z,11.93
2023-04-15T22:18:57.738Z,12.90
2023-04-15T22:22:02.292Z,11.25
2023-04-15T22:25:07.703Z,11.25
2023-04-15T22:28:12.918Z,12.43
2023-04-15T22:31:17.741Z,11.25
2023-04-15T22:34:22.581Z,11.75
2023-04-15T22:37:30.445Z,11.80
2023-04-15T22:40:35.131Z,12.15
2023-04-15T22:43:39.630Z,10.10
2023-04-15T22:46:44.296Z,10.90
2023-04-15T22:49:49.135Z,10.80
2023-04-15T22:52:53.697Z,11.90
2023-04-15T22:55:58.262Z,10.57
2023-04-15T22:59:02.832Z,11.95
2023-04-15T23:02:07.481Z,11.70
2023-04-15T23:05:13.379Z,11.57
2023-04-15T23:08:18.208Z,12.07
2023-04-15T23:11:22.889Z,10.88
2023-04-15T23:14:28.043Z,11.60
2023-04-15T23:17:32.682Z,11.75
2023-04-15T23:20:37.249Z,11.73
2023-04-15T23:23:41.898Z,14.82
2023-04-15T23:26:46.461Z,11.85
2023-04-15T23:29:51.228Z,11.55
2023-04-15T23:32:55.963Z,10.82
2023-04-15T23:36:00.557Z,12.25
2023-04-15T23:39:05.577Z,9.82
2023-04-15T23:42:10.684Z,9.07
2023-04-15T23:45:15.398Z,11.45
2023-04-15T23:48:20.012Z,14.23
2023-04-15T23:51:24.514Z,11.52
2023-04-15T23:54:29.110Z,13.05
2023-04-15T23:57:33.782Z,10.68
